createdAt,value
2017-11-15T00:01:39.439Z,73.30
2017-11-15T00:04:06.876Z,74.00
2017-11-15T00:06:35.109Z,74.30
2017-11-15T00:09:02.539Z,74.30
2017-11-15T00:11:29.975Z,74.10
2017-11-15T00:13:57.413Z,73.40
2017-11-15T00:16:24.865Z,73.60
2017-11-15T00:18:52.314Z,74.00
2017-11-15T00:21:19.757Z,74.60
2017-11-15T00:23:47.185Z,74.30
2017-11-15T00:26:14.630Z,73.60
2017-11-15T00:28:42.071Z,72.60
2017-11-15T00:31:09.557Z,74.00
2017-11-15T00:33:36.997Z,74.20
2017-11-15T00:36:04.430Z,75.20
2017-11-15T00:38:31.907Z,74.80
2017-11-15T00:40:59.354Z,75.30
2017-11-15T00:43:26.797Z,75.50
2017-11-15T00:45:55.008Z,75.20
2017-11-15T00:48:22.449Z,75.10
2017-11-15T00:50:49.877Z,74.40
2017-11-15T00:53:17.321Z,74.60
2017-11-15T00:55:44.753Z,75.20
2017-11-15T00:58:12.188Z,74.80
2017-11-15T01:00:40.466Z,74.70
2017-11-15T01:03:07.959Z,74.10
2017-11-15T01:05:36.185Z,75.50
2017-11-15T01:08:03.629Z,75.50
2017-11-15T01:10:31.062Z,75.40
2017-11-15T01:12:58.510Z,76.60
2017-11-15T01:15:25.934Z,77.30
2017-11-15T01:17:53.368Z,76.90
2017-11-15T01:20:21.572Z,76.40
2017-11-15T01:22:49.016Z,76.30
2017-11-15T01:25:16.453Z,76.20
2017-11-15T01:27:43.936Z,76.70
2017-11-15T01:30:11.348Z,78.00
2017-11-15T01:32:38.785Z,77.20
2017-11-15T01:35:06.235Z,77.20
2017-11-15T01:37:33.658Z,77.10
2017-11-15T01:40:01.103Z,76.00
2017-11-15T01:42:28.533Z,76.00
2017-11-15T01:44:55.969Z,75.40
2017-11-15T01:47:23.400Z,74.90
2017-11-15T01:49:50.835Z,74.80
2017-11-15T01:52:18.286Z,74.80
2017-11-15T01:54:45.713Z,75.90
2017-11-15T01:57:13.908Z,75.80
2017-11-15T01:59:41.353Z,75.80
2017-11-15T02:02:08.788Z,75.80
2017-11-15T02:04:36.229Z,75.80
2017-11-15T02:07:03.663Z,75.30
2017-11-15T02:09:31.106Z,75.50
2017-11-15T02:11:58.537Z,75.50
2017-11-15T02:14:26.755Z,74.60
2017-11-15T02:16:54.188Z,74.60
2017-11-15T02:19:21.628Z,74.90
2017-11-15T02:21:49.090Z,75.00
2017-11-15T02:24:16.564Z,74.80
2017-11-15T02:26:44.772Z,75.00
2017-11-15T02:29:12.215Z,74.90
2017-11-15T02:31:39.647Z,74.80
2017-11-15T02:34:07.091Z,74.60
2017-11-15T02:36:34.527Z,74.60
2017-11-15T02:39:01.964Z,74.90
2017-11-15T02:41:29.399Z,75.00
2017-11-15T02:43:56.830Z,74.80
2017-11-15T02:46:24.265Z,74.20
2017-11-15T02:48:52.465Z,75.20
2017-11-15T02:51:19.913Z,75.20
2017-11-15T02:53:47.345Z,75.20
2017-11-15T02:56:14.795Z,75.40
2017-11-15T02:58:42.237Z,74.40
2017-11-15T03:01:09.681Z,74.60
2017-11-15T03:03:37.104Z,75.20
2017-11-15T03:06:04.565Z,75.60
2017-11-15T03:08:32.140Z,76.30
2017-11-15T03:10:59.584Z,77.00
2017-11-15T03:13:27.014Z,76.80
2017-11-15T03:15:54.457Z,76.30
2017-11-15T03:18:21.940Z,76.80
2017-11-15T03:20:50.160Z,77.50
2017-11-15T03:23:17.593Z,77.50
2017-11-15T03:25:45.039Z,77.80
2017-11-15T03:28:12.482Z,77.80
2017-11-15T03:30:39.910Z,77.20
2017-11-15T03:33:07.342Z,77.00
2017-11-15T03:35:34.773Z,77.00
2017-11-15T03:38:02.221Z,77.50
2017-11-15T03:40:29.654Z,77.30
2017-11-15T03:42:57.101Z,76.90
2017-11-15T03:45:24.546Z,76.50
2017-11-15T03:47:51.982Z,75.80
2017-11-15T03:50:19.414Z,75.30
2017-11-15T03:52:46.860Z,74.40
2017-11-15T03:55:14.294Z,74.20
2017-11-15T03:57:42.514Z,75.00
2017-11-15T04:00:09.942Z,75.00
2017-11-15T04:02:37.377Z,74.00
2017-11-15T04:05:04.817Z,74.20
2017-11-15T04:07:32.270Z,75.20
2017-11-15T04:09:59.703Z,74.60
2017-11-15T04:12:27.138Z,74.30
2017-11-15T04:14:54.585Z,75.00
2017-11-15T04:17:22.049Z,74.80
2017-11-15T04:19:49.492Z,75.10
2017-11-15T04:22:16.973Z,75.10
2017-11-15T04:24:45.173Z,74.30
2017-11-15T04:27:12.606Z,74.20
2017-11-15T04:29:40.058Z,74.80
2017-11-15T04:32:07.489Z,74.30
2017-11-15T04:34:34.928Z,74.10
2017-11-15T04:37:02.356Z,74.60
2017-11-15T04:39:29.830Z,74.50
2017-11-15T04:41:57.260Z,74.20
2017-11-15T04:44:24.704Z,74.30
2017-11-15T04:46:52.137Z,74.50
2017-11-15T04:49:19.577Z,75.10
2017-11-15T04:51:47.022Z,76.90
2017-11-15T04:54:14.505Z,78.10
2017-11-15T04:56:41.953Z,78.40
2017-11-15T04:59:09.395Z,78.00
2017-11-15T05:01:36.836Z,76.40
2017-11-15T05:04:04.279Z,76.20
2017-11-15T05:06:31.715Z,75.90
2017-11-15T05:08:59.152Z,75.60
2017-11-15T05:11:26.585Z,75.70
2017-11-15T05:13:54.092Z,75.80
2017-11-15T05:16:22.277Z,76.30
2017-11-15T05:18:49.709Z,76.20
2017-11-15T05:21:17.158Z,77.30
2017-11-15T05:23:44.600Z,77.50
2017-11-15T05:26:12.052Z,77.30
2017-11-15T05:28:39.489Z,76.40
2017-11-15T05:31:06.922Z,75.90
2017-11-15T05:33:34.360Z,76.80
2017-11-15T05:36:01.797Z,77.40
2017-11-15T05:38:29.240Z,76.70
2017-11-15T05:40:56.713Z,77.00
2017-11-15T05:43:24.198Z,77.10
2017-11-15T05:45:51.628Z,76.60
2017-11-15T05:48:19.065Z,75.30
2017-11-15T05:50:46.528Z,75.30
2017-11-15T05:53:14.757Z,74.80
2017-11-15T05:55:42.194Z,74.80
2017-11-15T05:58:09.641Z,75.10
2017-11-15T06:00:37.073Z,74.90
2017-11-15T06:03:04.542Z,75.50
2017-11-15T06:05:31.974Z,75.80
2017-11-15T06:07:59.416Z,75.80
2017-11-15T06:10:26.913Z,74.80
2017-11-15T06:12:54.313Z,74.70
2017-11-15T06:15:21.795Z,75.30
2017-11-15T06:17:49.199Z,75.00
2017-11-15T06:20:16.729Z,75.20
2017-11-15T06:22:44.187Z,75.40
2017-11-15T06:25:11.509Z,74.80
2017-11-15T06:27:38.945Z,75.30
2017-11-15T06:30:06.417Z,75.60
2017-11-15T06:32:33.997Z,75.30
2017-11-15T06:35:01.485Z,76.10
2017-11-15T06:37:29.050Z,76.70
2017-11-15T06:39:56.403Z,75.90
2017-11-15T06:42:23.834Z,75.00
2017-11-15T06:44:51.301Z,75.20
2017-11-15T06:47:18.714Z,75.50
2017-11-15T06:49:46.161Z,75.10
2017-11-15T06:52:13.788Z,74.40
2017-11-15T06:54:41.224Z,75.00
2017-11-15T06:57:08.675Z,74.30
2017-11-15T06:59:36.882Z,73.80
2017-11-15T07:02:05.086Z,74.80
2017-11-15T07:04:32.533Z,74.80
2017-11-15T07:07:00.017Z,74.70
2017-11-15T07:09:27.486Z,75.40
2017-11-15T07:11:55.010Z,75.20
2017-11-15T07:14:22.440Z,74.40
2017-11-15T07:16:50.694Z,73.30
2017-11-15T07:19:18.123Z,72.30
2017-11-15T07:21:45.680Z,72.50
2017-11-15T07:24:13.467Z,72.40
2017-11-15T07:26:41.717Z,72.60
2017-11-15T07:29:10.006Z,71.80
2017-11-15T07:31:37.445Z,71.70
2017-11-15T07:34:04.913Z,72.10
2017-11-15T07:36:32.374Z,71.60
2017-11-15T07:39:00.229Z,71.70
2017-11-15T07:41:28.504Z,72.20
2017-11-15T07:43:56.003Z,72.90
2017-11-15T07:46:23.441Z,72.30
2017-11-15T07:48:50.904Z,72.40
2017-11-15T07:51:18.337Z,72.70
2017-11-15T07:53:45.940Z,74.10
2017-11-15T07:56:14.157Z,73.60
2017-11-15T07:58:41.593Z,73.60
2017-11-15T08:01:09.107Z,73.50
2017-11-15T08:03:36.545Z,73.60
2017-11-15T08:06:04.014Z,73.00
2017-11-15T08:08:31.449Z,72.20
2017-11-15T08:10:58.882Z,72.40
2017-11-15T08:13:26.323Z,71.80
2017-11-15T08:15:53.782Z,70.80
2017-11-15T08:18:21.741Z,70.70
2017-11-15T08:20:49.168Z,71.50
2017-11-15T08:23:16.656Z,71.70
2017-11-15T08:25:44.306Z,71.10
2017-11-15T08:28:11.976Z,70.50
2017-11-15T08:30:39.553Z,71.70
2017-11-15T08:33:07.104Z,71.60
2017-11-15T08:35:34.588Z,72.60
2017-11-15T08:38:02.031Z,72.30
2017-11-15T08:40:29.489Z,72.80
2017-11-15T08:42:56.913Z,72.20
2017-11-15T08:45:24.360Z,72.40
2017-11-15T08:47:51.905Z,72.60
2017-11-15T08:50:19.493Z,71.90
2017-11-15T08:52:46.942Z,72.30
2017-11-15T08:55:14.390Z,71.70
2017-11-15T08:57:41.841Z,71.20
2017-11-15T09:00:09.272Z,71.90
2017-11-15T09:02:36.726Z,71.90
2017-11-15T09:05:04.153Z,71.20
2017-11-15T09:07:31.626Z,71.80
2017-11-15T09:09:59.090Z,72.40
2017-11-15T09:12:26.617Z,73.50
2017-11-15T09:14:54.089Z,72.70
2017-11-15T09:17:22.310Z,72.00
2017-11-15T09:19:49.773Z,72.00
2017-11-15T09:22:17.221Z,72.10
2017-11-15T09:24:44.658Z,71.70
2017-11-15T09:27:12.118Z,71.60
2017-11-15T09:29:40.345Z,72.30
2017-11-15T09:32:07.792Z,72.30
2017-11-15T09:34:35.281Z,72.00
2017-11-15T09:37:03.483Z,71.40
2017-11-15T09:39:30.925Z,71.40
2017-11-15T09:41:59.260Z,69.50
2017-11-15T09:44:26.699Z,69.70
2017-11-15T09:46:54.133Z,70.30
2017-11-15T09:49:22.330Z,68.10
2017-11-15T09:51:49.797Z,68.10
2017-11-15T09:54:17.233Z,68.50
2017-11-15T09:56:44.661Z,68.10
2017-11-15T09:59:12.237Z,68.00
2017-11-15T10:01:40.465Z,69.50
2017-11-15T10:04:07.932Z,69.40
2017-11-15T10:06:35.396Z,69.60
2017-11-15T10:09:03.633Z,68.50
2017-11-15T10:11:31.281Z,68.50
2017-11-15T10:13:58.726Z,68.10
2017-11-15T10:16:26.170Z,68.00
2017-11-15T10:18:53.614Z,66.50
2017-11-15T10:21:21.061Z,66.80
2017-11-15T10:23:48.497Z,66.90
2017-11-15T10:26:15.933Z,68.10
2017-11-15T10:28:43.365Z,68.80
2017-11-15T10:31:10.834Z,69.30
2017-11-15T10:33:38.271Z,68.40
2017-11-15T10:36:05.706Z,68.70
2017-11-15T10:38:33.258Z,69.50
2017-11-15T10:41:00.731Z,68.50
2017-11-15T10:43:28.933Z,69.80
2017-11-15T10:45:56.402Z,69.80
2017-11-15T10:48:23.962Z,71.40
2017-11-15T10:50:51.491Z,72.60
2017-11-15T10:53:18.935Z,74.20
2017-11-15T10:55:46.392Z,73.60
2017-11-15T10:58:13.822Z,73.80
2017-11-15T11:00:41.278Z,72.30
2017-11-15T11:03:08.801Z,70.00
2017-11-15T11:05:37.024Z,68.00
2017-11-15T11:08:04.458Z,68.00
2017-11-15T11:10:31.955Z,66.60
2017-11-15T11:12:59.406Z,67.20
2017-11-15T11:15:26.838Z,68.00
2017-11-15T11:17:54.280Z,68.10
2017-11-15T11:20:21.878Z,69.10
2017-11-15T11:22:49.325Z,67.90
2017-11-15T11:25:16.759Z,68.60
2017-11-15T11:27:44.206Z,68.70
2017-11-15T11:30:11.636Z,68.50
2017-11-15T11:32:39.077Z,68.30
2017-11-15T11:35:07.490Z,68.90
2017-11-15T11:37:35.688Z,68.60
2017-11-15T11:40:03.891Z,68.00
2017-11-15T11:42:31.385Z,68.00
2017-11-15T11:44:58.857Z,69.10
2017-11-15T11:47:26.353Z,68.70
2017-11-15T11:49:53.897Z,69.60
2017-11-15T11:52:21.361Z,68.30
2017-11-15T11:54:48.868Z,68.30
2017-11-15T11:57:16.337Z,69.60
2017-11-15T11:59:43.790Z,70.20
2017-11-15T12:02:11.258Z,71.10
2017-11-15T12:04:39.179Z,72.00
2017-11-15T12:07:08.114Z,72.60
2017-11-15T12:09:35.606Z,72.60
2017-11-15T12:12:03.057Z,70.10
2017-11-15T12:14:31.253Z,70.00
2017-11-15T12:16:58.864Z,70.00
2017-11-15T12:19:27.077Z,69.60
2017-11-15T12:21:54.519Z,69.40
2017-11-15T12:24:21.967Z,70.20
2017-11-15T12:26:49.405Z,69.30
2017-11-15T12:29:16.876Z,69.20
2017-11-15T12:31:44.591Z,68.70
2017-11-15T12:34:12.031Z,68.60
2017-11-15T12:36:39.478Z,70.40
2017-11-15T12:39:06.927Z,71.10
2017-11-15T12:41:34.401Z,70.60
2017-11-15T12:44:02.038Z,69.90
2017-11-15T12:46:29.620Z,68.50
2017-11-15T12:48:57.927Z,69.00
2017-11-15T12:51:25.396Z,69.00
2017-11-15T12:53:52.868Z,68.60
2017-11-15T12:56:21.097Z,68.90
2017-11-15T12:58:48.916Z,68.90
2017-11-15T13:01:16.386Z,67.50
2017-11-15T13:03:43.835Z,66.90
2017-11-15T13:06:11.288Z,66.70
2017-11-15T13:08:39.516Z,67.80
2017-11-15T13:11:06.951Z,67.20
2017-11-15T13:13:34.414Z,67.50
2017-11-15T13:16:01.857Z,68.20
2017-11-15T13:18:29.305Z,66.40
2017-11-15T13:20:56.748Z,67.40
2017-11-15T13:23:24.184Z,67.10
2017-11-15T13:25:51.742Z,66.20
2017-11-15T13:28:19.209Z,66.60
2017-11-15T13:30:47.415Z,64.70
2017-11-15T13:33:14.853Z,64.80
2017-11-15T13:35:42.311Z,65.90
2017-11-15T13:38:10.166Z,64.70
2017-11-15T13:40:37.674Z,65.70
2017-11-15T13:43:05.114Z,65.70
2017-11-15T13:45:32.567Z,66.10
2017-11-15T13:48:00.019Z,67.10
2017-11-15T13:50:27.450Z,67.30
2017-11-15T13:52:55.017Z,67.50
2017-11-15T13:55:22.457Z,67.80
2017-11-15T13:57:49.933Z,68.30
2017-11-15T14:00:17.473Z,67.40
2017-11-15T14:02:45.017Z,67.70
2017-11-15T14:05:12.459Z,68.10
2017-11-15T14:07:39.897Z,68.80
2017-11-15T14:10:07.426Z,68.60
2017-11-15T14:12:34.951Z,69.40
2017-11-15T14:15:02.457Z,68.50
2017-11-15T14:17:30.736Z,69.40
2017-11-15T14:19:58.939Z,69.80
2017-11-15T14:22:26.378Z,69.80
2017-11-15T14:24:53.816Z,70.20
2017-11-15T14:27:21.274Z,69.80
2017-11-15T14:29:48.720Z,69.30
2017-11-15T14:32:16.284Z,70.10
2017-11-15T14:34:43.715Z,70.20
2017-11-15T14:37:11.161Z,69.00
2017-11-15T14:39:38.592Z,68.00
2017-11-15T14:42:06.034Z,68.70
2017-11-15T14:44:33.462Z,69.20
2017-11-15T14:47:01.033Z,68.90
2017-11-15T14:49:34.436Z,68.90
2017-11-15T14:52:02.844Z,68.40
2017-11-15T14:54:30.297Z,68.30
2017-11-15T14:56:57.753Z,69.20
2017-11-15T14:59:25.188Z,69.70
2017-11-15T15:01:52.709Z,70.40
2017-11-15T15:04:20.161Z,70.20
2017-11-15T15:06:47.607Z,70.00
2017-11-15T15:09:15.075Z,70.00
2017-11-15T15:11:42.609Z,70.10
2017-11-15T15:14:10.052Z,70.20
2017-11-15T15:16:47.394Z,71.10
2017-11-15T15:19:14.978Z,71.40
2017-11-15T15:21:42.431Z,71.40
2017-11-15T15:24:09.983Z,72.20
2017-11-15T15:26:38.364Z,72.20
2017-11-15T15:29:05.812Z,72.20
2017-11-15T15:31:33.322Z,72.40
2017-11-15T15:34:00.860Z,72.90
2017-11-15T15:36:28.403Z,71.40
2017-11-15T15:38:56.673Z,72.90
2017-11-15T15:41:24.120Z,72.90
2017-11-15T15:43:51.627Z,72.80
2017-11-15T15:46:19.124Z,72.50
2017-11-15T15:48:47.325Z,73.90
2017-11-15T15:51:15.786Z,73.90
2017-11-15T15:53:43.266Z,73.90
2017-11-15T15:56:10.709Z,73.60
2017-11-15T15:58:38.923Z,72.30
2017-11-15T16:01:06.356Z,72.40
2017-11-15T16:03:33.821Z,72.50
2017-11-15T16:06:01.281Z,72.00
2017-11-15T16:08:28.761Z,71.20
2017-11-15T16:10:56.997Z,73.20
2017-11-15T16:13:24.446Z,73.10
2017-11-15T16:15:52.758Z,73.70
2017-11-15T16:18:20.211Z,73.60
2017-11-15T16:20:47.648Z,73.30
2017-11-15T16:23:15.084Z,74.10
2017-11-15T16:25:42.533Z,74.20
2017-11-15T16:28:10.128Z,75.10
2017-11-15T16:30:37.572Z,75.60
2017-11-15T16:33:05.008Z,75.90
2017-11-15T16:35:32.488Z,76.40
2017-11-15T16:38:00.133Z,76.30
2017-11-15T16:40:28.333Z,77.00
2017-11-15T16:42:55.809Z,77.00
2017-11-15T16:45:23.426Z,77.30
2017-11-15T16:47:50.880Z,77.50
2017-11-15T16:50:18.329Z,77.40
2017-11-15T16:52:45.761Z,77.30
2017-11-15T16:55:13.240Z,77.80
2017-11-15T16:57:40.766Z,77.40
2017-11-15T17:00:08.214Z,77.00
2017-11-15T17:02:35.649Z,77.70
2017-11-15T17:05:03.110Z,78.00
2017-11-15T17:07:30.549Z,77.60
2017-11-15T17:09:58.000Z,78.50
2017-11-15T17:12:25.497Z,77.70
2017-11-15T17:14:52.937Z,77.50
2017-11-15T17:17:20.409Z,77.20
2017-11-15T17:19:47.869Z,77.10
2017-11-15T17:22:16.121Z,75.90
2017-11-15T17:24:43.569Z,75.90
2017-11-15T17:27:11.900Z,73.70
2017-11-15T17:29:39.384Z,73.80
2017-11-15T17:32:07.597Z,73.50
2017-11-15T17:34:35.053Z,73.50
2017-11-15T17:37:02.514Z,73.90
2017-11-15T17:39:29.965Z,73.70
2017-11-15T17:41:57.451Z,73.60
2017-11-15T17:44:24.958Z,73.80
2017-11-15T17:46:53.170Z,74.80
2017-11-15T17:49:20.621Z,74.80
2017-11-15T17:51:48.088Z,74.70
2017-11-15T17:54:15.529Z,74.00
2017-11-15T17:56:42.985Z,74.10
2017-11-15T17:59:11.382Z,75.60
2017-11-15T18:01:38.838Z,76.50
2017-11-15T18:04:06.256Z,76.60
2017-11-15T18:06:33.716Z,76.30
2017-11-15T18:09:01.166Z,76.60
2017-11-15T18:11:28.612Z,76.00
2017-11-15T18:13:58.023Z,75.90
2017-11-15T18:16:25.496Z,76.30
2017-11-15T18:18:53.699Z,75.10
2017-11-15T18:21:21.149Z,75.00
2017-11-15T18:23:48.600Z,75.10
2017-11-15T18:26:16.053Z,75.80
2017-11-15T18:28:43.506Z,76.20
2017-11-15T18:31:10.973Z,76.50
2017-11-15T18:33:39.208Z,76.40
2017-11-15T18:36:06.666Z,77.10
2017-11-15T18:38:34.205Z,75.30
2017-11-15T18:41:01.648Z,75.70
2017-11-15T18:43:29.084Z,76.50
2017-11-15T18:45:57.281Z,76.20
2017-11-15T18:48:24.767Z,76.10
2017-11-15T18:50:52.227Z,75.90
2017-11-15T18:53:19.881Z,77.00
2017-11-15T18:55:48.081Z,76.00
2017-11-15T18:58:15.617Z,75.90
2017-11-15T19:00:43.051Z,76.10
2017-11-15T19:03:10.497Z,76.80
2017-11-15T19:05:37.926Z,76.30
2017-11-15T19:08:06.228Z,75.80
2017-11-15T19:10:33.671Z,75.80
2017-11-15T19:13:01.193Z,74.80
2017-11-15T19:15:28.644Z,73.90
2017-11-15T19:17:56.101Z,73.30
2017-11-15T19:20:23.815Z,74.10
2017-11-15T19:22:52.038Z,75.80
2017-11-15T19:25:19.564Z,75.90
2017-11-15T19:27:47.006Z,76.30
2017-11-15T19:30:14.560Z,76.80
2017-11-15T19:32:42.052Z,77.50
2017-11-15T19:35:09.736Z,77.80
2017-11-15T19:37:37.173Z,77.00
2017-11-15T19:40:04.645Z,76.90
2017-11-15T19:42:32.097Z,76.10
2017-11-15T19:44:59.545Z,76.00
2017-11-15T19:47:26.985Z,76.80
2017-11-15T19:49:54.628Z,78.30
2017-11-15T19:52:22.074Z,77.40
2017-11-15T19:54:49.521Z,75.70
2017-11-15T19:57:17.744Z,75.40
2017-11-15T19:59:45.189Z,75.40
2017-11-15T20:02:12.714Z,75.20
2017-11-15T20:04:40.297Z,75.30
2017-11-15T20:07:07.853Z,75.00
2017-11-15T20:09:35.293Z,74.70
2017-11-15T20:12:02.782Z,75.40
2017-11-15T20:14:30.250Z,75.20
2017-11-15T20:16:58.466Z,74.40
2017-11-15T20:19:26.682Z,73.90
2017-11-15T20:21:54.129Z,73.90
2017-11-15T20:24:21.589Z,72.70
2017-11-15T20:26:49.128Z,72.30
2017-11-15T20:29:16.631Z,73.50
2017-11-15T20:31:44.084Z,73.40
2017-11-15T20:34:11.516Z,72.60
2017-11-15T20:36:38.965Z,72.70
2017-11-15T20:39:07.321Z,74.00
2017-11-15T20:41:34.880Z,72.70
2017-11-15T20:44:02.323Z,72.90
2017-11-15T20:46:29.757Z,73.20
2017-11-15T20:48:57.188Z,72.60
2017-11-15T20:51:24.629Z,73.00
2017-11-15T20:53:52.155Z,72.80
2017-11-15T20:56:20.357Z,73.70
2017-11-15T20:58:47.786Z,73.70
2017-11-15T21:01:15.257Z,74.40
2017-11-15T21:03:42.699Z,74.50
2017-11-15T21:06:10.170Z,74.40
2017-11-15T21:08:37.630Z,73.60
2017-11-15T21:11:05.843Z,74.60
2017-11-15T21:13:33.286Z,74.60
2017-11-15T21:16:00.758Z,74.80
2017-11-15T21:18:28.194Z,74.50
2017-11-15T21:20:55.733Z,73.70
2017-11-15T21:23:23.193Z,72.90
2017-11-15T21:25:51.542Z,71.90
2017-11-15T21:28:18.981Z,71.90
2017-11-15T21:30:46.428Z,72.20
2017-11-15T21:33:13.962Z,72.80
2017-11-15T21:35:41.685Z,72.10
2017-11-15T21:38:09.123Z,71.70
2017-11-15T21:40:36.578Z,71.70
2017-11-15T21:43:04.014Z,72.30
2017-11-15T21:45:31.452Z,72.70
2017-11-15T21:47:59.210Z,71.50
2017-11-15T21:50:26.671Z,72.50
2017-11-15T21:52:54.140Z,72.70
2017-11-15T21:55:22.346Z,72.70
2017-11-15T21:57:49.899Z,73.30
2017-11-15T22:00:17.360Z,72.20
2017-11-15T22:02:44.925Z,72.10
2017-11-15T22:05:12.356Z,72.10
2017-11-15T22:07:49.960Z,72.10
2017-11-15T22:10:18.270Z,72.80
2017-11-15T22:12:45.701Z,72.80
2017-11-15T22:15:13.140Z,72.80
2017-11-15T22:17:40.655Z,71.10
2017-11-15T22:20:08.963Z,72.10
2017-11-15T22:22:36.409Z,72.10
2017-11-15T22:25:03.844Z,72.10
2017-11-15T22:27:31.316Z,72.10
2017-11-15T22:29:58.754Z,72.40
2017-11-15T22:32:26.259Z,72.60
2017-11-15T22:34:53.698Z,71.70
2017-11-15T22:37:21.150Z,71.00
2017-11-15T22:39:48.590Z,72.00
2017-11-15T22:42:16.469Z,73.20
2017-11-15T22:44:43.913Z,73.30
2017-11-15T22:47:11.372Z,72.70
2017-11-15T22:49:38.825Z,72.50
2017-11-15T22:52:06.264Z,73.20
2017-11-15T22:54:33.727Z,73.20
2017-11-15T22:57:01.930Z,73.20
2017-11-15T22:59:29.395Z,73.10
2017-11-15T23:01:56.836Z,71.90
2017-11-15T23:04:24.287Z,70.80
2017-11-15T23:06:51.733Z,71.50
2017-11-15T23:09:19.184Z,71.50
2017-11-15T23:11:46.713Z,71.40
2017-11-15T23:14:14.155Z,71.50
2017-11-15T23:16:41.677Z,71.40
2017-11-15T23:19:09.133Z,71.80
2017-11-15T23:21:36.569Z,72.40
2017-11-15T23:24:04.015Z,72.30
2017-11-15T23:26:31.453Z,72.60
2017-11-15T23:28:58.926Z,71.90
2017-11-15T23:31:26.357Z,71.60
2017-11-15T23:33:53.811Z,71.60
2017-11-15T23:36:21.349Z,71.40
2017-11-15T23:38:48.790Z,72.90
2017-11-15T23:41:16.350Z,74.10
2017-11-15T23:43:44.556Z,73.00
2017-11-15T23:46:12.007Z,72.90
2017-11-15T23:48:39.598Z,72.40
2017-11-15T23:51:07.134Z,71.40
2017-11-15T23:53:34.645Z,71.80
2017-11-15T23:56:02.096Z,72.10
2017-11-15T23:58:29.547Z,72.80
